sensor_id;sensor_type;location;lat;lon;timestamp;temperature;humidity
435;DHT22;204;48.942;9.256;2023-08-12T00:01:39;19.70;1.00
435;DHT22;204;48.942;9.256;2023-08-12T00:04:04;19.70;1.00
435;DHT22;204;48.942;9.256;2023-08-12T00:06:30;19.70;1.00
435;DHT22;204;48.942;9.256;2023-08-12T00:08:56;19.70;1.00
435;DHT22;204;48.942;9.256;2023-08-12T00:11:21;19.70;1.00
435;DHT22;204;48.942;9.256;2023-08-12T00:13:47;19.70;1.00
435;DHT22;204;48.942;9.256;2023-08-12T00:16:12;19.70;1.00
435;DHT22;204;48.942;9.256;2023-08-12T00:18:38;19.70;1.00
435;DHT22;204;48.942;9.256;2023-08-12T00:21:07;19.70;1.00
435;DHT22;204;48.942;9.256;2023-08-12T00:23:40;19.60;1.00
435;DHT22;204;48.942;9.256;2023-08-12T00:26:09;19.60;1.00
435;DHT22;204;48.942;9.256;2023-08-12T00:28:35;19.60;1.00
435;DHT22;204;48.942;9.256;2023-08-12T00:31:00;19.60;1.00
435;DHT22;204;48.942;9.256;2023-08-12T00:33:26;19.60;1.00
435;DHT22;204;48.942;9.256;2023-08-12T00:35:51;19.60;1.00
435;DHT22;204;48.942;9.256;2023-08-12T00:38:17;19.60;1.00
435;DHT22;204;48.942;9.256;2023-08-12T00:40:43;19.60;1.00
435;DHT22;204;48.942;9.256;2023-08-12T00:43:09;19.60;1.00
435;DHT22;204;48.942;9.256;2023-08-12T00:45:34;19.60;1.00
435;DHT22;204;48.942;9.256;2023-08-12T00:48:01;19.60;1.00
435;DHT22;204;48.942;9.256;2023-08-12T00:50:28;19.60;1.00
435;DHT22;204;48.942;9.256;2023-08-12T00:52:54;19.60;1.00
435;DHT22;204;48.942;9.256;2023-08-12T00:55:20;19.60;1.00
435;DHT22;204;48.942;9.256;2023-08-12T00:57:46;19.60;1.00
435;DHT22;204;48.942;9.256;2023-08-12T01:00:12;19.60;1.00
435;DHT22;204;48.942;9.256;2023-08-12T01:02:38;19.50;1.00
435;DHT22;204;48.942;9.256;2023-08-12T01:05:04;19.50;1.00
435;DHT22;204;48.942;9.256;2023-08-12T01:07:30;19.50;1.00
435;DHT22;204;48.942;9.256;2023-08-12T01:09:56;19.50;1.00
435;DHT22;204;48.942;9.256;2023-08-12T01:12:33;19.50;1.00
435;DHT22;204;48.942;9.256;2023-08-12T01:15:16;19.40;1.00
435;DHT22;204;48.942;9.256;2023-08-12T01:17:43;19.40;1.00
435;DHT22;204;48.942;9.256;2023-08-12T01:20:11;19.40;1.00
435;DHT22;204;48.942;9.256;2023-08-12T01:22:40;19.30;1.00
435;DHT22;204;48.942;9.256;2023-08-12T01:25:07;19.30;1.00
435;DHT22;204;48.942;9.256;2023-08-12T01:27:36;19.30;1.00
435;DHT22;204;48.942;9.256;2023-08-12T01:30:03;19.20;1.00
435;DHT22;204;48.942;9.256;2023-08-12T01:32:49;19.20;1.00
435;DHT22;204;48.942;9.256;2023-08-12T01:35:25;19.20;1.00
435;DHT22;204;48.942;9.256;2023-08-12T01:37:52;19.20;1.00
435;DHT22;204;48.942;9.256;2023-08-12T01:40:19;19.20;1.00
435;DHT22;204;48.942;9.256;2023-08-12T01:42:45;19.10;1.00
435;DHT22;204;48.942;9.256;2023-08-12T01:45:11;19.10;1.00
435;DHT22;204;48.942;9.256;2023-08-12T01:47:37;19.10;1.00
435;DHT22;204;48.942;9.256;2023-08-12T01:50:03;19.10;1.00
435;DHT22;204;48.942;9.256;2023-08-12T01:52:29;19.10;1.00
435;DHT22;204;48.942;9.256;2023-08-12T01:54:55;19.10;1.00
435;DHT22;204;48.942;9.256;2023-08-12T01:57:20;19.10;1.00
435;DHT22;204;48.942;9.256;2023-08-12T01:59:46;19.00;1.00
435;DHT22;204;48.942;9.256;2023-08-12T02:02:12;19.00;1.00
435;DHT22;204;48.942;9.256;2023-08-12T02:04:39;19.00;1.00
435;DHT22;204;48.942;9.256;2023-08-12T02:07:05;19.00;1.00
435;DHT22;204;48.942;9.256;2023-08-12T02:09:31;19.00;1.00
435;DHT22;204;48.942;9.256;2023-08-12T02:11:57;19.00;1.00
435;DHT22;204;48.942;9.256;2023-08-12T02:14:22;19.00;1.00
435;DHT22;204;48.942;9.256;2023-08-12T02:16:48;19.00;1.00
435;DHT22;204;48.942;9.256;2023-08-12T02:19:14;19.00;1.00
435;DHT22;204;48.942;9.256;2023-08-12T02:21:40;19.10;1.00
435;DHT22;204;48.942;9.256;2023-08-12T02:24:06;19.10;1.00
435;DHT22;204;48.942;9.256;2023-08-12T02:26:32;19.10;1.00
435;DHT22;204;48.942;9.256;2023-08-12T02:28:57;19.10;1.00
435;DHT22;204;48.942;9.256;2023-08-12T02:31:23;19.10;1.00
435;DHT22;204;48.942;9.256;2023-08-12T02:33:48;19.10;1.00
435;DHT22;204;48.942;9.256;2023-08-12T02:36:15;19.10;1.00
435;DHT22;204;48.942;9.256;2023-08-12T02:38:40;19.20;1.00
435;DHT22;204;48.942;9.256;2023-08-12T02:41:06;19.20;1.00
435;DHT22;204;48.942;9.256;2023-08-12T02:43:32;19.30;1.00
435;DHT22;204;48.942;9.256;2023-08-12T02:45:57;19.30;1.00
435;DHT22;204;48.942;9.256;2023-08-12T02:48:23;19.40;1.00
435;DHT22;204;48.942;9.256;2023-08-12T02:50:48;19.40;1.00
435;DHT22;204;48.942;9.256;2023-08-12T02:53:15;19.50;1.00
435;DHT22;204;48.942;9.256;2023-08-12T02:55:41;19.50;1.00
435;DHT22;204;48.942;9.256;2023-08-12T02:58:06;19.60;1.00
435;DHT22;204;48.942;9.256;2023-08-12T03:00:32;19.60;1.00
435;DHT22;204;48.942;9.256;2023-08-12T03:02:58;19.60;1.00
435;DHT22;204;48.942;9.256;2023-08-12T03:05:23;19.70;1.00
435;DHT22;204;48.942;9.256;2023-08-12T03:07:49;19.70;1.00
435;DHT22;204;48.942;9.256;2023-08-12T03:10:16;19.70;1.00
435;DHT22;204;48.942;9.256;2023-08-12T03:12:42;19.70;1.00
435;DHT22;204;48.942;9.256;2023-08-12T03:15:08;19.70;1.00
435;DHT22;204;48.942;9.256;2023-08-12T03:17:34;19.70;1.00
435;DHT22;204;48.942;9.256;2023-08-12T03:19:59;19.80;1.00
435;DHT22;204;48.942;9.256;2023-08-12T03:22:28;19.80;1.00
435;DHT22;204;48.942;9.256;2023-08-12T03:24:54;19.80;1.00
435;DHT22;204;48.942;9.256;2023-08-12T03:27:20;19.80;1.00
435;DHT22;204;48.942;9.256;2023-08-12T03:29:45;19.90;1.00
435;DHT22;204;48.942;9.256;2023-08-12T03:32:11;19.80;1.00
435;DHT22;204;48.942;9.256;2023-08-12T03:34:37;19.80;1.00
435;DHT22;204;48.942;9.256;2023-08-12T03:37:03;19.90;1.00
435;DHT22;204;48.942;9.256;2023-08-12T03:39:29;19.90;1.00
435;DHT22;204;48.942;9.256;2023-08-12T03:41:54;19.90;1.00
435;DHT22;204;48.942;9.256;2023-08-12T03:44:20;19.90;1.00
435;DHT22;204;48.942;9.256;2023-08-12T03:46:46;19.90;1.00
435;DHT22;204;48.942;9.256;2023-08-12T03:49:11;19.90;1.00
435;DHT22;204;48.942;9.256;2023-08-12T03:51:37;19.90;1.00
435;DHT22;204;48.942;9.256;2023-08-12T03:54:02;20.00;1.00
435;DHT22;204;48.942;9.256;2023-08-12T03:56:29;20.00;1.00
435;DHT22;204;48.942;9.256;2023-08-12T03:58:54;20.00;1.00
435;DHT22;204;48.942;9.256;2023-08-12T04:01:20;20.00;1.00
435;DHT22;204;48.942;9.256;2023-08-12T04:03:45;20.00;1.00
435;DHT22;204;48.942;9.256;2023-08-12T04:06:11;20.00;1.00
435;DHT22;204;48.942;9.256;2023-08-12T04:08:36;20.00;1.00
435;DHT22;204;48.942;9.256;2023-08-12T04:11:02;20.00;1.00
435;DHT22;204;48.942;9.256;2023-08-12T04:13:27;20.00;1.00
435;DHT22;204;48.942;9.256;2023-08-12T04:15:53;20.00;1.00
435;DHT22;204;48.942;9.256;2023-08-12T04:18:19;20.00;1.00
435;DHT22;204;48.942;9.256;2023-08-12T04:20:46;20.00;1.00
435;DHT22;204;48.942;9.256;2023-08-12T04:23:12;20.00;1.00
435;DHT22;204;48.942;9.256;2023-08-12T04:25:38;20.00;1.00
435;DHT22;204;48.942;9.256;2023-08-12T04:28:04;20.00;1.00
435;DHT22;204;48.942;9.256;2023-08-12T04:30:29;20.10;1.00
435;DHT22;204;48.942;9.256;2023-08-12T04:32:55;20.10;1.00
435;DHT22;204;48.942;9.256;2023-08-12T04:35:21;20.10;1.00
435;DHT22;204;48.942;9.256;2023-08-12T04:37:46;20.10;1.00
435;DHT22;204;48.942;9.256;2023-08-12T04:40:12;20.20;1.00
435;DHT22;204;48.942;9.256;2023-08-12T04:42:37;20.20;1.00
435;DHT22;204;48.942;9.256;2023-08-12T04:45:03;20.20;1.00
435;DHT22;204;48.942;9.256;2023-08-12T04:47:29;20.20;1.00
435;DHT22;204;48.942;9.256;2023-08-12T04:49:55;20.20;1.00
435;DHT22;204;48.942;9.256;2023-08-12T04:52:20;20.20;1.00
435;DHT22;204;48.942;9.256;2023-08-12T04:54:46;20.30;1.00
435;DHT22;204;48.942;9.256;2023-08-12T04:57:12;20.40;1.00
435;DHT22;204;48.942;9.256;2023-08-12T04:59:37;20.40;1.00
435;DHT22;204;48.942;9.256;2023-08-12T05:02:03;20.60;1.00
435;DHT22;204;48.942;9.256;2023-08-12T05:04:28;20.60;1.00
435;DHT22;204;48.942;9.256;2023-08-12T05:06:54;20.70;1.00
435;DHT22;204;48.942;9.256;2023-08-12T05:09:20;20.80;1.00
435;DHT22;204;48.942;9.256;2023-08-12T05:11:45;20.80;1.00
435;DHT22;204;48.942;9.256;2023-08-12T05:14:11;20.90;1.00
435;DHT22;204;48.942;9.256;2023-08-12T05:16:36;20.90;1.00
435;DHT22;204;48.942;9.256;2023-08-12T05:19:02;21.10;1.00
435;DHT22;204;48.942;9.256;2023-08-12T05:21:27;21.20;1.00
435;DHT22;204;48.942;9.256;2023-08-12T05:23:53;21.30;1.00
435;DHT22;204;48.942;9.256;2023-08-12T05:26:19;21.40;1.00
435;DHT22;204;48.942;9.256;2023-08-12T05:28:46;21.50;1.00
435;DHT22;204;48.942;9.256;2023-08-12T05:31:11;21.60;1.00
435;DHT22;204;48.942;9.256;2023-08-12T05:33:37;21.60;1.00
435;DHT22;204;48.942;9.256;2023-08-12T05:36:03;21.60;1.00
435;DHT22;204;48.942;9.256;2023-08-12T05:38:29;21.70;1.00
435;DHT22;204;48.942;9.256;2023-08-12T05:40:54;21.70;1.00
435;DHT22;204;48.942;9.256;2023-08-12T05:43:20;21.60;1.00
435;DHT22;204;48.942;9.256;2023-08-12T05:45:46;21.70;1.00
435;DHT22;204;48.942;9.256;2023-08-12T05:48:11;21.80;1.00
435;DHT22;204;48.942;9.256;2023-08-12T05:50:37;21.90;1.00
435;DHT22;204;48.942;9.256;2023-08-12T05:53:02;22.00;1.00
435;DHT22;204;48.942;9.256;2023-08-12T05:55:28;22.20;1.00
435;DHT22;204;48.942;9.256;2023-08-12T05:57:54;22.40;1.00
435;DHT22;204;48.942;9.256;2023-08-12T06:00:19;22.50;1.00
435;DHT22;204;48.942;9.256;2023-08-12T06:02:45;22.60;1.00
435;DHT22;204;48.942;9.256;2023-08-12T06:05:10;22.80;1.00
435;DHT22;204;48.942;9.256;2023-08-12T06:07:36;22.80;1.00
435;DHT22;204;48.942;9.256;2023-08-12T06:10:02;22.90;1.00
435;DHT22;204;48.942;9.256;2023-08-12T06:12:28;23.00;1.00
435;DHT22;204;48.942;9.256;2023-08-12T06:14:54;23.10;1.00
435;DHT22;204;48.942;9.256;2023-08-12T06:17:19;23.10;1.00
435;DHT22;204;48.942;9.256;2023-08-12T06:19:45;23.20;1.00
435;DHT22;204;48.942;9.256;2023-08-12T06:22:10;23.30;1.00
435;DHT22;204;48.942;9.256;2023-08-12T06:24:36;23.40;1.00
435;DHT22;204;48.942;9.256;2023-08-12T06:27:02;23.40;1.00
435;DHT22;204;48.942;9.256;2023-08-12T06:29:27;23.30;1.00
435;DHT22;204;48.942;9.256;2023-08-12T06:31:53;23.40;1.00
435;DHT22;204;48.942;9.256;2023-08-12T06:34:18;23.40;1.00
435;DHT22;204;48.942;9.256;2023-08-12T06:36:44;23.30;1.00
435;DHT22;204;48.942;9.256;2023-08-12T06:39:10;23.30;1.00
435;DHT22;204;48.942;9.256;2023-08-12T06:41:35;23.30;1.00
435;DHT22;204;48.942;9.256;2023-08-12T06:44:01;23.40;1.00
435;DHT22;204;48.942;9.256;2023-08-12T06:46:26;23.50;1.00
435;DHT22;204;48.942;9.256;2023-08-12T06:48:53;23.70;1.00
435;DHT22;204;48.942;9.256;2023-08-12T06:51:19;23.90;1.00
435;DHT22;204;48.942;9.256;2023-08-12T06:53:44;24.10;1.00
435;DHT22;204;48.942;9.256;2023-08-12T06:56:10;24.40;1.00
435;DHT22;204;48.942;9.256;2023-08-12T06:58:35;24.50;1.00
435;DHT22;204;48.942;9.256;2023-08-12T07:01:01;24.80;1.00
435;DHT22;204;48.942;9.256;2023-08-12T07:03:26;24.90;1.00
435;DHT22;204;48.942;9.256;2023-08-12T07:05:53;24.90;99.90
435;DHT22;204;48.942;9.256;2023-08-12T07:08:19;25.00;99.90
435;DHT22;204;48.942;9.256;2023-08-12T07:10:45;25.10;99.90
435;DHT22;204;48.942;9.256;2023-08-12T07:13:11;25.20;99.90
435;DHT22;204;48.942;9.256;2023-08-12T07:15:37;25.40;99.90
435;DHT22;204;48.942;9.256;2023-08-12T07:18:02;25.50;99.90
435;DHT22;204;48.942;9.256;2023-08-12T07:20:28;25.70;99.90
435;DHT22;204;48.942;9.256;2023-08-12T07:22:54;26.00;99.90
435;DHT22;204;48.942;9.256;2023-08-12T07:25:19;26.30;99.90
435;DHT22;204;48.942;9.256;2023-08-12T07:27:45;26.50;99.90
435;DHT22;204;48.942;9.256;2023-08-12T07:30:11;26.70;99.90
435;DHT22;204;48.942;9.256;2023-08-12T07:32:38;26.80;99.90
435;DHT22;204;48.942;9.256;2023-08-12T07:35:04;27.00;99.90
435;DHT22;204;48.942;9.256;2023-08-12T07:37:31;27.20;99.90
435;DHT22;204;48.942;9.256;2023-08-12T07:39:56;27.20;99.90
435;DHT22;204;48.942;9.256;2023-08-12T07:42:22;27.30;99.90
435;DHT22;204;48.942;9.256;2023-08-12T07:44:47;27.30;99.90
435;DHT22;204;48.942;9.256;2023-08-12T07:47:13;27.20;99.90
435;DHT22;204;48.942;9.256;2023-08-12T07:49:40;27.30;99.90
435;DHT22;204;48.942;9.256;2023-08-12T07:52:06;27.50;99.90
435;DHT22;204;48.942;9.256;2023-08-12T07:54:31;27.80;99.90
435;DHT22;204;48.942;9.256;2023-08-12T07:56:57;28.20;99.90
435;DHT22;204;48.942;9.256;2023-08-12T07:59:22;28.70;99.90
435;DHT22;204;48.942;9.256;2023-08-12T08:01:48;29.10;99.90
435;DHT22;204;48.942;9.256;2023-08-12T08:04:13;29.60;99.90
435;DHT22;204;48.942;9.256;2023-08-12T08:06:39;30.00;99.90
435;DHT22;204;48.942;9.256;2023-08-12T08:09:05;30.30;99.90
435;DHT22;204;48.942;9.256;2023-08-12T08:11:31;30.50;99.90
435;DHT22;204;48.942;9.256;2023-08-12T08:13:58;30.50;99.90
435;DHT22;204;48.942;9.256;2023-08-12T08:16:24;30.50;99.90
435;DHT22;204;48.942;9.256;2023-08-12T08:18:50;30.60;99.90
435;DHT22;204;48.942;9.256;2023-08-12T08:21:16;30.60;99.90
435;DHT22;204;48.942;9.256;2023-08-12T08:23:41;30.60;99.90
435;DHT22;204;48.942;9.256;2023-08-12T08:26:08;30.50;99.90
435;DHT22;204;48.942;9.256;2023-08-12T08:28:33;30.50;99.90
435;DHT22;204;48.942;9.256;2023-08-12T08:30:59;30.70;99.90
435;DHT22;204;48.942;9.256;2023-08-12T08:33:26;31.10;99.90
435;DHT22;204;48.942;9.256;2023-08-12T08:35:53;31.30;99.90
435;DHT22;204;48.942;9.256;2023-08-12T08:38:18;31.40;99.90
435;DHT22;204;48.942;9.256;2023-08-12T08:40:44;31.70;99.90
435;DHT22;204;48.942;9.256;2023-08-12T08:43:10;31.90;99.90
435;DHT22;204;48.942;9.256;2023-08-12T08:45:37;32.10;99.90
435;DHT22;204;48.942;9.256;2023-08-12T08:48:05;32.20;99.90
435;DHT22;204;48.942;9.256;2023-08-12T08:50:32;32.10;99.90
435;DHT22;204;48.942;9.256;2023-08-12T08:52:58;32.00;99.90
435;DHT22;204;48.942;9.256;2023-08-12T08:55:25;31.90;99.90
435;DHT22;204;48.942;9.256;2023-08-12T08:57:51;31.90;99.90
435;DHT22;204;48.942;9.256;2023-08-12T09:00:17;31.90;99.90
435;DHT22;204;48.942;9.256;2023-08-12T09:02:46;31.90;99.90
435;DHT22;204;48.942;9.256;2023-08-12T09:05:15;32.10;99.90
435;DHT22;204;48.942;9.256;2023-08-12T09:07:43;32.40;99.90
435;DHT22;204;48.942;9.256;2023-08-12T09:10:10;32.50;99.90
435;DHT22;204;48.942;9.256;2023-08-12T09:12:36;32.70;99.90
435;DHT22;204;48.942;9.256;2023-08-12T09:15:03;32.70;99.90
435;DHT22;204;48.942;9.256;2023-08-12T09:17:29;32.80;99.90
435;DHT22;204;48.942;9.256;2023-08-12T09:19:55;32.90;99.90
435;DHT22;204;48.942;9.256;2023-08-12T09:22:24;32.90;99.90
435;DHT22;204;48.942;9.256;2023-08-12T09:24:52;32.80;99.90
435;DHT22;204;48.942;9.256;2023-08-12T09:27:21;32.70;99.90
435;DHT22;204;48.942;9.256;2023-08-12T09:29:46;32.50;99.90
435;DHT22;204;48.942;9.256;2023-08-12T09:32:19;32.40;99.90
435;DHT22;204;48.942;9.256;2023-08-12T09:34:53;32.40;99.90
435;DHT22;204;48.942;9.256;2023-08-12T09:37:20;32.40;99.90
435;DHT22;204;48.942;9.256;2023-08-12T09:39:47;32.40;99.90
435;DHT22;204;48.942;9.256;2023-08-12T09:42:14;32.30;99.90
435;DHT22;204;48.942;9.256;2023-08-12T09:44:41;32.20;99.90
435;DHT22;204;48.942;9.256;2023-08-12T09:47:07;32.20;99.90
435;DHT22;204;48.942;9.256;2023-08-12T09:49:36;32.10;99.90
435;DHT22;204;48.942;9.256;2023-08-12T09:52:03;32.00;99.90
435;DHT22;204;48.942;9.256;2023-08-12T09:54:31;31.90;99.90
435;DHT22;204;48.942;9.256;2023-08-12T09:56:58;31.90;99.90
435;DHT22;204;48.942;9.256;2023-08-12T09:59:27;31.90;99.90
435;DHT22;204;48.942;9.256;2023-08-12T10:01:54;31.90;99.90
435;DHT22;204;48.942;9.256;2023-08-12T10:04:22;31.90;99.90
435;DHT22;204;48.942;9.256;2023-08-12T10:06:49;32.20;99.90
435;DHT22;204;48.942;9.256;2023-08-12T10:09:16;32.40;99.90
435;DHT22;204;48.942;9.256;2023-08-12T10:11:42;32.70;99.90
435;DHT22;204;48.942;9.256;2023-08-12T10:14:12;33.00;99.90
435;DHT22;204;48.942;9.256;2023-08-12T10:16:38;33.20;99.90
435;DHT22;204;48.942;9.256;2023-08-12T10:19:06;33.50;99.90
435;DHT22;204;48.942;9.256;2023-08-12T10:21:32;33.60;99.90
435;DHT22;204;48.942;9.256;2023-08-12T10:23:58;33.80;99.90
435;DHT22;204;48.942;9.256;2023-08-12T10:26:27;33.90;99.90
435;DHT22;204;48.942;9.256;2023-08-12T10:28:54;34.10;99.90
435;DHT22;204;48.942;9.256;2023-08-12T10:31:20;34.10;99.90
435;DHT22;204;48.942;9.256;2023-08-12T10:33:46;34.20;99.90
435;DHT22;204;48.942;9.256;2023-08-12T10:36:15;34.20;99.90
435;DHT22;204;48.942;9.256;2023-08-12T10:38:41;34.30;99.90
435;DHT22;204;48.942;9.256;2023-08-12T10:41:22;34.40;99.90
435;DHT22;204;48.942;9.256;2023-08-12T10:46:33;34.40;99.90
435;DHT22;204;48.942;9.256;2023-08-12T10:49:09;34.30;99.90
435;DHT22;204;48.942;9.256;2023-08-12T10:51:43;34.30;99.90
435;DHT22;204;48.942;9.256;2023-08-12T11:02:28;33.50;99.90
435;DHT22;204;48.942;9.256;2023-08-12T11:10:14;33.30;99.90
435;DHT22;204;48.942;9.256;2023-08-12T11:12:42;33.30;99.90
435;DHT22;204;48.942;9.256;2023-08-12T11:15:08;33.50;99.90
435;DHT22;204;48.942;9.256;2023-08-12T11:17:37;33.80;99.90
435;DHT22;204;48.942;9.256;2023-08-12T11:20:05;34.10;99.90
435;DHT22;204;48.942;9.256;2023-08-12T11:22:35;34.20;99.90
435;DHT22;204;48.942;9.256;2023-08-12T11:25:02;34.20;99.90
435;DHT22;204;48.942;9.256;2023-08-12T11:27:27;34.10;99.90
435;DHT22;204;48.942;9.256;2023-08-12T11:29:53;34.00;99.90
435;DHT22;204;48.942;9.256;2023-08-12T11:32:19;34.00;99.90
435;DHT22;204;48.942;9.256;2023-08-12T11:34:45;34.00;99.90
435;DHT22;204;48.942;9.256;2023-08-12T11:37:10;34.10;99.90
435;DHT22;204;48.942;9.256;2023-08-12T11:39:37;34.30;99.90
435;DHT22;204;48.942;9.256;2023-08-12T11:42:03;34.70;99.90
435;DHT22;204;48.942;9.256;2023-08-12T11:44:29;35.00;99.90
435;DHT22;204;48.942;9.256;2023-08-12T11:46:55;34.90;99.90
435;DHT22;204;48.942;9.256;2023-08-12T11:49:20;34.80;99.90
435;DHT22;204;48.942;9.256;2023-08-12T11:51:47;34.70;99.90
435;DHT22;204;48.942;9.256;2023-08-12T11:54:16;34.30;99.90
435;DHT22;204;48.942;9.256;2023-08-12T11:56:42;33.80;99.90
435;DHT22;204;48.942;9.256;2023-08-12T11:59:08;33.40;99.90
435;DHT22;204;48.942;9.256;2023-08-12T12:01:34;33.00;99.90
435;DHT22;204;48.942;9.256;2023-08-12T12:04:00;32.50;99.90
435;DHT22;204;48.942;9.256;2023-08-12T12:06:33;31.40;99.90
435;DHT22;204;48.942;9.256;2023-08-12T12:09:06;29.60;99.90
435;DHT22;204;48.942;9.256;2023-08-12T12:11:35;27.40;99.90
435;DHT22;204;48.942;9.256;2023-08-12T12:14:06;25.40;99.90
435;DHT22;204;48.942;9.256;2023-08-12T12:16:46;23.90;1.00
435;DHT22;204;48.942;9.256;2023-08-12T12:19:22;23.10;1.00
435;DHT22;204;48.942;9.256;2023-08-12T12:21:53;22.60;1.00
435;DHT22;204;48.942;9.256;2023-08-12T12:24:19;22.30;1.00
435;DHT22;204;48.942;9.256;2023-08-12T12:26:46;22.20;1.00
435;DHT22;204;48.942;9.256;2023-08-12T15:46:42;25.10;1.00
435;DHT22;204;48.942;9.256;2023-08-12T15:49:08;25.70;1.00
435;DHT22;204;48.942;9.256;2023-08-12T15:51:36;25.70;1.00
435;DHT22;204;48.942;9.256;2023-08-12T15:54:02;25.70;1.00
435;DHT22;204;48.942;9.256;2023-08-12T15:56:29;25.50;1.00
435;DHT22;204;48.942;9.256;2023-08-12T15:58:55;25.40;1.00
435;DHT22;204;48.942;9.256;2023-08-12T16:01:20;25.20;1.00
435;DHT22;204;48.942;9.256;2023-08-12T16:03:46;25.10;1.00
435;DHT22;204;48.942;9.256;2023-08-12T16:06:12;24.90;1.00
435;DHT22;204;48.942;9.256;2023-08-12T16:08:37;24.60;1.00
435;DHT22;204;48.942;9.256;2023-08-12T16:11:04;24.30;1.00
435;DHT22;204;48.942;9.256;2023-08-12T16:13:30;24.10;1.00
435;DHT22;204;48.942;9.256;2023-08-12T16:15:57;23.80;1.00
435;DHT22;204;48.942;9.256;2023-08-12T16:18:24;23.60;1.00
435;DHT22;204;48.942;9.256;2023-08-12T16:20:49;23.40;1.00
435;DHT22;204;48.942;9.256;2023-08-12T16:23:15;23.30;1.00
435;DHT22;204;48.942;9.256;2023-08-12T16:25:40;23.10;1.00
435;DHT22;204;48.942;9.256;2023-08-12T16:28:06;23.00;1.00
435;DHT22;204;48.942;9.256;2023-08-12T16:30:31;22.90;1.00
435;DHT22;204;48.942;9.256;2023-08-12T16:32:57;22.80;1.00
435;DHT22;204;48.942;9.256;2023-08-12T16:35:23;22.90;1.00
435;DHT22;204;48.942;9.256;2023-08-12T16:37:49;22.80;1.00
435;DHT22;204;48.942;9.256;2023-08-12T16:40:14;22.80;1.00
435;DHT22;204;48.942;9.256;2023-08-12T16:42:40;22.90;1.00
435;DHT22;204;48.942;9.256;2023-08-12T16:45:06;22.80;1.00
435;DHT22;204;48.942;9.256;2023-08-12T16:47:32;22.80;1.00
435;DHT22;204;48.942;9.256;2023-08-12T16:49:57;22.80;1.00
435;DHT22;204;48.942;9.256;2023-08-12T16:52:23;22.80;1.00
435;DHT22;204;48.942;9.256;2023-08-12T16:54:48;22.90;1.00
435;DHT22;204;48.942;9.256;2023-08-12T16:57:14;22.90;1.00
435;DHT22;204;48.942;9.256;2023-08-12T16:59:39;22.90;1.00
435;DHT22;204;48.942;9.256;2023-08-12T17:02:05;22.90;1.00
435;DHT22;204;48.942;9.256;2023-08-12T17:04:31;23.00;1.00
435;DHT22;204;48.942;9.256;2023-08-12T17:06:57;23.00;1.00
435;DHT22;204;48.942;9.256;2023-08-12T17:09:23;23.10;1.00
435;DHT22;204;48.942;9.256;2023-08-12T17:11:49;23.10;1.00
435;DHT22;204;48.942;9.256;2023-08-12T17:14:14;23.20;1.00
435;DHT22;204;48.942;9.256;2023-08-12T17:16:40;23.20;1.00
435;DHT22;204;48.942;9.256;2023-08-12T17:19:06;23.30;1.00
435;DHT22;204;48.942;9.256;2023-08-12T17:21:31;23.30;1.00
435;DHT22;204;48.942;9.256;2023-08-12T17:23:57;23.40;1.00
435;DHT22;204;48.942;9.256;2023-08-12T17:26:23;23.50;1.00
435;DHT22;204;48.942;9.256;2023-08-12T17:28:48;23.60;1.00
435;DHT22;204;48.942;9.256;2023-08-12T17:31:16;23.70;1.00
435;DHT22;204;48.942;9.256;2023-08-12T17:33:42;23.90;1.00
435;DHT22;204;48.942;9.256;2023-08-12T17:36:07;24.00;1.00
435;DHT22;204;48.942;9.256;2023-08-12T17:38:33;24.20;1.00
435;DHT22;204;48.942;9.256;2023-08-12T17:40:59;24.30;1.00
435;DHT22;204;48.942;9.256;2023-08-12T17:43:25;24.40;1.00
435;DHT22;204;48.942;9.256;2023-08-12T17:45:51;24.50;1.00
435;DHT22;204;48.942;9.256;2023-08-12T17:48:16;24.50;1.00
435;DHT22;204;48.942;9.256;2023-08-12T17:50:42;24.50;1.00
435;DHT22;204;48.942;9.256;2023-08-12T17:53:07;24.50;1.00
435;DHT22;204;48.942;9.256;2023-08-12T17:55:33;24.50;1.00
435;DHT22;204;48.942;9.256;2023-08-12T17:57:59;24.50;1.00
435;DHT22;204;48.942;9.256;2023-08-12T18:00:24;24.40;1.00
435;DHT22;204;48.942;9.256;2023-08-12T18:02:50;24.40;1.00
435;DHT22;204;48.942;9.256;2023-08-12T18:05:16;24.30;1.00
435;DHT22;204;48.942;9.256;2023-08-12T18:07:41;24.20;1.00
435;DHT22;204;48.942;9.256;2023-08-12T18:10:07;24.20;1.00
435;DHT22;204;48.942;9.256;2023-08-12T18:12:33;24.10;1.00
435;DHT22;204;48.942;9.256;2023-08-12T18:14:59;24.10;1.00
435;DHT22;204;48.942;9.256;2023-08-12T18:17:25;24.00;1.00
435;DHT22;204;48.942;9.256;2023-08-12T18:19:53;24.00;1.00
435;DHT22;204;48.942;9.256;2023-08-12T18:22:18;23.90;1.00
435;DHT22;204;48.942;9.256;2023-08-12T18:24:44;23.80;1.00
435;DHT22;204;48.942;9.256;2023-08-12T18:27:10;23.70;1.00
435;DHT22;204;48.942;9.256;2023-08-12T18:29:36;23.70;1.00
435;DHT22;204;48.942;9.256;2023-08-12T18:32:01;23.60;1.00
435;DHT22;204;48.942;9.256;2023-08-12T18:34:27;23.60;1.00
435;DHT22;204;48.942;9.256;2023-08-12T18:36:53;23.50;1.00
435;DHT22;204;48.942;9.256;2023-08-12T18:39:19;23.50;1.00
435;DHT22;204;48.942;9.256;2023-08-12T18:41:45;23.40;1.00
435;DHT22;204;48.942;9.256;2023-08-12T18:44:11;23.30;1.00
435;DHT22;204;48.942;9.256;2023-08-12T18:46:36;23.20;1.00
435;DHT22;204;48.942;9.256;2023-08-12T18:49:03;23.10;1.00
435;DHT22;204;48.942;9.256;2023-08-12T18:51:28;23.00;1.00
435;DHT22;204;48.942;9.256;2023-08-12T18:53:54;23.00;1.00
435;DHT22;204;48.942;9.256;2023-08-12T18:56:20;23.00;1.00
435;DHT22;204;48.942;9.256;2023-08-12T18:58:45;22.90;1.00
435;DHT22;204;48.942;9.256;2023-08-12T19:01:11;22.80;1.00
435;DHT22;204;48.942;9.256;2023-08-12T19:03:37;22.80;1.00
435;DHT22;204;48.942;9.256;2023-08-12T19:06:02;22.80;1.00
435;DHT22;204;48.942;9.256;2023-08-12T19:08:29;22.70;1.00
435;DHT22;204;48.942;9.256;2023-08-12T19:10:56;22.70;1.00
435;DHT22;204;48.942;9.256;2023-08-12T19:13:25;22.70;1.00
435;DHT22;204;48.942;9.256;2023-08-12T19:15:53;22.70;1.00
435;DHT22;204;48.942;9.256;2023-08-12T19:18:19;22.70;1.00
435;DHT22;204;48.942;9.256;2023-08-12T19:20:45;22.70;1.00
435;DHT22;204;48.942;9.256;2023-08-12T19:23:10;22.70;1.00
435;DHT22;204;48.942;9.256;2023-08-12T19:25:36;22.70;1.00
435;DHT22;204;48.942;9.256;2023-08-12T19:28:02;22.70;1.00
435;DHT22;204;48.942;9.256;2023-08-12T19:30:27;22.70;1.00
435;DHT22;204;48.942;9.256;2023-08-12T19:32:54;22.70;1.00
435;DHT22;204;48.942;9.256;2023-08-12T19:35:20;22.70;1.00
435;DHT22;204;48.942;9.256;2023-08-12T19:37:47;22.60;1.00
435;DHT22;204;48.942;9.256;2023-08-12T19:40:14;22.60;1.00
435;DHT22;204;48.942;9.256;2023-08-12T19:42:40;22.60;1.00
435;DHT22;204;48.942;9.256;2023-08-12T19:45:06;22.60;1.00
435;DHT22;204;48.942;9.256;2023-08-12T19:47:38;22.50;1.00
435;DHT22;204;48.942;9.256;2023-08-12T19:50:05;22.50;1.00
435;DHT22;204;48.942;9.256;2023-08-12T19:52:31;22.40;1.00
435;DHT22;204;48.942;9.256;2023-08-12T19:54:56;22.40;1.00
435;DHT22;204;48.942;9.256;2023-08-12T19:57:22;22.30;1.00
435;DHT22;204;48.942;9.256;2023-08-12T19:59:47;22.30;1.00
435;DHT22;204;48.942;9.256;2023-08-12T20:02:13;22.30;1.00
435;DHT22;204;48.942;9.256;2023-08-12T20:04:38;22.30;1.00
435;DHT22;204;48.942;9.256;2023-08-12T20:07:04;22.30;1.00
435;DHT22;204;48.942;9.256;2023-08-12T20:09:30;22.20;1.00
435;DHT22;204;48.942;9.256;2023-08-12T20:11:55;22.20;1.00
435;DHT22;204;48.942;9.256;2023-08-12T20:14:21;22.30;1.00